Terminal Aerodrome Forecast
Issued by NWS Austin/San Antonio, TX

Home | Current Version | Previous Version | Text Only | Print | Product List | Glossary On
Versions: 1 2 3 4 5 6 7 8 9 10 11 12 13 14 15 16 17 18 19 20 21 22 23 24 25 26
000
FTUS44 KEWX 211700 AAA
TAFAUS
TAF AMD
KAUS 211744Z 2118/2224 17008KT P6SM VCSH BKN008 OVC012
     FM212100 17011KT P6SM BKN025
     FM220000 15013KT 6SM -SHRA BR OVC007
     FM221200 11011KT 4SM BR BKN007 PROB30 2214/2220 TS BKN007CB
     FM222000 13005KT 3SM TSRA BR OVC008CB=

USA.gov is the U.S. government's official web portal to all federal, state and local government web resources and services.